Time;durP1;ratioP1;P1;durP2;ratioP2;P2;SDS_P1;SDS_P2;PMS_P1;PMS_P2;Temp;Humidity;BMP_temperature;BMP_pressure;BME280_temperature;BME280_humidity;BME280_pressure;Samples;Min_cycle;Max_cycle;Signal;HPM_P1;HPM_P2
2023/04/25 00:02:13;;;;;;;;;;;7.70;99.90;;;;;;4989608;28;20035;-85
2023/04/25 00:04:38;;;;;;;;;;;7.30;99.90;;;;;;4990860;28;20045;-86
2023/04/25 00:07:04;;;;;;;;;;;7.30;99.90;;;;;;4990976;28;19942;-84
2023/04/25 00:09:30;;;;;;;;;;;7.20;99.90;;;;;;4989628;28;19953;-85
2023/04/25 00:11:55;;;;;;;;;;;7.40;99.90;;;;;;4994729;28;20022;-85
2023/04/25 00:14:22;;;;;;;;;;;7.20;99.90;;;;;;4990869;28;20020;-84
2023/04/25 00:16:48;;;;;;;;;;;7.10;99.90;;;;;;4995699;28;20422;-85
2023/04/25 00:19:14;;;;;;;;;;;7.10;99.90;;;;;;4998800;28;19988;-85
2023/04/25 00:21:42;;;;;;;;;;;7.10;99.90;;;;;;4992447;28;19963;-84
2023/04/25 00:24:08;;;;;;;;;;;7.10;99.90;;;;;;4989664;28;20026;-85
2023/04/25 00:26:35;;;;;;;;;;;7.90;99.90;;;;;;4990465;28;20041;-86
2023/04/25 00:29:00;;;;;;;;;;;7.80;99.90;;;;;;4991309;28;20443;-85
2023/04/25 00:31:28;;;;;;;;;;;7.20;99.90;;;;;;4991816;28;19984;-86
2023/04/25 00:33:54;;;;;;;;;;;7.20;99.90;;;;;;4991339;28;19965;-86
2023/04/25 00:36:20;;;;;;;;;;;7.30;99.90;;;;;;4993255;28;20033;-85
2023/04/25 00:38:45;;;;;;;;;;;6.90;99.90;;;;;;4988854;28;20423;-86
2023/04/25 00:41:11;;;;;;;;;;;6.80;99.90;;;;;;4989008;28;19962;-85
2023/04/25 00:43:37;;;;;;;;;;;7.40;99.90;;;;;;4989213;28;19947;-85
2023/04/25 00:46:03;;;;;;;;;;;7.10;99.90;;;;;;4989739;28;19970;-86
2023/04/25 00:48:28;;;;;;;;;;;6.70;99.90;;;;;;4993254;28;19992;-85
2023/04/25 00:50:56;;;;;;;;;;;6.70;99.90;;;;;;4996329;28;19993;-85
2023/04/25 00:53:22;;;;;;;;;;;6.80;99.90;;;;;;4990404;28;20330;-85
2023/04/25 00:55:50;;;;;;;;;;;6.70;99.90;;;;;;4989605;28;20414;-85
2023/04/25 00:58:20;;;;;;;;;;;7.60;99.90;;;;;;4989152;28;19953;-84
2023/04/25 01:00:47;;;;;;;;;;;6.80;99.90;;;;;;4998524;28;19967;-85
2023/04/25 01:03:13;;;;;;;;;;;6.50;99.90;;;;;;4993657;28;19943;-85
2023/04/25 01:05:40;;;;;;;;;;;6.80;99.90;;;;;;4993867;28;20032;-85
2023/04/25 01:08:06;;;;;;;;;;;6.80;99.90;;;;;;4993349;28;20033;-85
2023/04/25 01:10:31;;;;;;;;;;;6.60;99.90;;;;;;4997301;28;20044;-84
2023/04/25 01:12:57;;;;;;;;;;;7.10;99.90;;;;;;4992164;28;19958;-85
2023/04/25 01:15:22;;;;;;;;;;;6.70;99.90;;;;;;4993694;28;19948;-84
2023/04/25 01:17:49;;;;;;;;;;;6.50;99.90;;;;;;4993642;28;19954;-85
2023/04/25 01:20:15;;;;;;;;;;;6.60;99.90;;;;;;4999256;28;19971;-85
2023/04/25 01:22:41;;;;;;;;;;;6.60;99.90;;;;;;4993472;28;19942;-84
2023/04/25 01:25:07;;;;;;;;;;;6.30;99.90;;;;;;4992137;28;19948;-85
2023/04/25 01:27:33;;;;;;;;;;;6.60;99.90;;;;;;4996591;28;19946;-85
2023/04/25 01:29:59;;;;;;;;;;;6.50;99.90;;;;;;4999920;28;20497;-84
2023/04/25 01:32:25;;;;;;;;;;;6.80;99.90;;;;;;4984601;28;19969;-85
2023/04/25 01:34:51;;;;;;;;;;;6.10;99.90;;;;;;4975839;28;20387;-85
2023/04/25 01:37:16;;;;;;;;;;;6.50;99.90;;;;;;4991599;28;20424;-84
2023/04/25 01:39:42;;;;;;;;;;;6.50;99.90;;;;;;4992997;28;19943;-85
2023/04/25 01:42:08;;;;;;;;;;;6.70;99.90;;;;;;4992798;28;19968;-86
2023/04/25 01:44:34;;;;;;;;;;;6.90;99.90;;;;;;4992686;28;19983;-86
2023/04/25 01:46:59;;;;;;;;;;;6.40;99.90;;;;;;4993152;28;20017;-85
2023/04/25 01:49:25;;;;;;;;;;;6.40;99.90;;;;;;4999168;28;20445;-86
2023/04/25 01:51:51;;;;;;;;;;;6.70;99.90;;;;;;4998461;28;19954;-84
2023/04/25 01:54:16;;;;;;;;;;;6.50;99.90;;;;;;4991787;28;19960;-84
2023/04/25 01:56:42;;;;;;;;;;;6.50;99.90;;;;;;4991301;28;19954;-85
2023/04/25 01:59:08;;;;;;;;;;;7.20;99.90;;;;;;4999553;28;20311;-85
2023/04/25 02:01:34;;;;;;;;;;;7.00;99.90;;;;;;4993950;28;20072;-85
2023/04/25 02:03:59;;;;;;;;;;;6.50;99.90;;;;;;4993092;28;20050;-84
2023/04/25 02:06:25;;;;;;;;;;;6.40;99.90;;;;;;4993057;28;19948;-85
2023/04/25 02:08:51;;;;;;;;;;;6.50;99.90;;;;;;4991427;28;20386;-85
2023/04/25 02:11:16;;;;;;;;;;;6.40;99.90;;;;;;4992001;28;20298;-85
2023/04/25 02:13:42;;;;;;;;;;;6.80;99.90;;;;;;4999832;28;20037;-85
2023/04/25 02:16:07;;;;;;;;;;;6.30;99.90;;;;;;4991620;28;19978;-85
2023/04/25 02:18:33;;;;;;;;;;;6.30;99.90;;;;;;4992592;28;20389;-85
2023/04/25 02:20:59;;;;;;;;;;;7.10;99.90;;;;;;4992270;28;19962;-85
2023/04/25 02:23:25;;;;;;;;;;;6.70;99.90;;;;;;4992991;28;20007;-85
2023/04/25 02:25:51;;;;;;;;;;;6.30;99.90;;;;;;4990906;28;19950;-85
2023/04/25 02:28:17;;;;;;;;;;;6.60;99.90;;;;;;4990926;28;20450;-85
2023/04/25 02:30:43;;;;;;;;;;;6.80;99.90;;;;;;4995778;28;20039;-86
2023/04/25 02:33:08;;;;;;;;;;;6.70;99.90;;;;;;4994049;28;19959;-85
2023/04/25 02:35:34;;;;;;;;;;;6.50;99.90;;;;;;4991199;28;20024;-87
2023/04/25 02:38:00;;;;;;;;;;;6.80;99.90;;;;;;4992202;28;19947;-86
2023/04/25 02:40:26;;;;;;;;;;;6.70;99.90;;;;;;4993010;28;20065;-86
2023/04/25 02:42:51;;;;;;;;;;;6.20;99.90;;;;;;4997426;28;19968;-86
2023/04/25 02:45:17;;;;;;;;;;;6.20;99.90;;;;;;4991933;28;19943;-85
2023/04/25 02:47:43;;;;;;;;;;;7.10;99.90;;;;;;4974797;28;19962;-86
2023/04/25 02:50:08;;;;;;;;;;;5.70;99.90;;;;;;4992128;28;20361;-85
2023/04/25 02:52:34;;;;;;;;;;;6.00;99.90;;;;;;4989936;28;19945;-87
2023/04/25 02:54:59;;;;;;;;;;;6.50;99.90;;;;;;4990540;28;19949;-86
2023/04/25 02:57:25;;;;;;;;;;;6.60;99.90;;;;;;4991430;28;19986;-86
2023/04/25 02:59:51;;;;;;;;;;;6.00;99.90;;;;;;4992224;28;19946;-87
2023/04/25 03:02:16;;;;;;;;;;;6.90;99.90;;;;;;4991457;28;19946;-86
2023/04/25 03:04:42;;;;;;;;;;;6.30;99.90;;;;;;4990328;28;19943;-86
2023/04/25 03:07:08;;;;;;;;;;;5.90;99.90;;;;;;4990443;28;19944;-86
2023/04/25 03:09:33;;;;;;;;;;;6.60;99.90;;;;;;4991872;28;19944;-85
2023/04/25 03:12:00;;;;;;;;;;;6.20;99.90;;;;;;4991581;28;19948;-86
2023/04/25 03:14:25;;;;;;;;;;;6.40;99.90;;;;;;4997320;28;19952;-86
2023/04/25 03:16:51;;;;;;;;;;;6.30;99.90;;;;;;4991112;28;19946;-87
2023/04/25 03:19:17;;;;;;;;;;;6.80;99.90;;;;;;4996975;28;20346;-86
2023/04/25 03:21:42;;;;;;;;;;;6.10;99.90;;;;;;4990552;28;19964;-85
2023/04/25 03:24:08;;;;;;;;;;;6.00;99.90;;;;;;4990924;28;19957;-86
2023/04/25 03:26:34;;;;;;;;;;;5.70;99.90;;;;;;4990115;28;19946;-85
2023/04/25 03:28:59;;;;;;;;;;;6.00;99.90;;;;;;4991387;28;19952;-86
2023/04/25 03:31:25;;;;;;;;;;;5.70;99.90;;;;;;4991608;28;20345;-86
2023/04/25 03:33:51;;;;;;;;;;;5.50;99.90;;;;;;4991350;28;20320;-87
2023/04/25 03:36:16;;;;;;;;;;;5.80;99.90;;;;;;4989993;28;19948;-87
2023/04/25 03:38:42;;;;;;;;;;;5.70;99.90;;;;;;4996494;28;20000;-86
2023/04/25 03:41:08;;;;;;;;;;;6.10;99.90;;;;;;4973399;28;19984;-86
2023/04/25 03:43:33;;;;;;;;;;;5.70;99.90;;;;;;4990109;28;19946;-85
2023/04/25 03:45:59;;;;;;;;;;;5.70;99.90;;;;;;4990170;28;19955;-86
2023/04/25 03:48:26;;;;;;;;;;;6.00;99.90;;;;;;4989214;28;20051;-86
2023/04/25 03:50:52;;;;;;;;;;;6.00;99.90;;;;;;4991272;28;19945;-86
2023/04/25 03:53:17;;;;;;;;;;;6.00;99.90;;;;;;4989718;28;19948;-86
2023/04/25 03:55:43;;;;;;;;;;;6.00;99.90;;;;;;4995196;28;19951;-85
2023/04/25 03:58:09;;;;;;;;;;;5.80;99.90;;;;;;4990925;28;20393;-86
2023/04/25 04:00:35;;;;;;;;;;;5.60;99.90;;;;;;4990485;28;19958;-85
2023/04/25 04:03:01;;;;;;;;;;;5.70;99.90;;;;;;4990928;28;19950;-86
2023/04/25 04:05:27;;;;;;;;;;;5.50;99.90;;;;;;4990090;28;19947;-87
2023/04/25 04:07:53;;;;;;;;;;;5.50;99.90;;;;;;4988971;28;19951;-85
2023/04/25 04:10:19;;;;;;;;;;;5.40;99.90;;;;;;4990695;28;19951;-86
2023/04/25 04:12:47;;;;;;;;;;;5.60;99.90;;;;;;4990652;28;19949;-86
2023/04/25 04:15:13;;;;;;;;;;;5.30;99.90;;;;;;4989640;28;19946;-84
2023/04/25 04:17:39;;;;;;;;;;;6.00;99.90;;;;;;4990576;28;19952;-85
2023/04/25 04:20:05;;;;;;;;;;;5.90;99.90;;;;;;4995724;28;19957;-86
2023/04/25 04:22:31;;;;;;;;;;;5.30;99.90;;;;;;4989168;28;19945;-85
2023/04/25 04:24:57;;;;;;;;;;;5.20;99.90;;;;;;4998832;28;20290;-86
2023/04/25 04:27:23;;;;;;;;;;;5.00;99.90;;;;;;4990458;28;19951;-85
2023/04/25 04:29:49;;;;;;;;;;;5.00;99.90;;;;;;4972704;28;19953;-85
2023/04/25 04:32:15;;;;;;;;;;;3.50;99.90;;;;;;4989204;28;19953;-86
2023/04/25 04:34:41;;;;;;;;;;;4.90;99.90;;;;;;4989273;28;19947;-86
2023/04/25 04:37:06;;;;;;;;;;;4.90;99.90;;;;;;4989480;28;20040;-86
2023/04/25 04:39:35;;;;;;;;;;;4.50;99.90;;;;;;4996681;28;20452;-85
2023/04/25 04:42:04;;;;;;;;;;;4.90;99.90;;;;;;4990430;28;19974;-85
2023/04/25 04:44:32;;;;;;;;;;;4.90;99.90;;;;;;4990212;28;19955;-86
2023/04/25 04:46:58;;;;;;;;;;;5.80;99.90;;;;;;4988979;28;20364;-86
2023/04/25 04:49:24;;;;;;;;;;;4.80;99.90;;;;;;4988674;28;20519;-86
2023/04/25 04:51:49;;;;;;;;;;;4.80;99.90;;;;;;4989843;28;20032;-87
2023/04/25 04:54:15;;;;;;;;;;;5.40;99.90;;;;;;4989221;28;19948;-85
2023/04/25 04:56:41;;;;;;;;;;;4.90;99.90;;;;;;4989352;28;19945;-85
2023/04/25 04:59:07;;;;;;;;;;;5.00;99.90;;;;;;4993483;28;19947;-85
2023/04/25 05:01:35;;;;;;;;;;;4.60;99.90;;;;;;4974573;28;19965;-85
2023/04/25 05:04:00;;;;;;;;;;;5.50;99.90;;;;;;4966454;28;19950;-85
2023/04/25 05:06:27;;;;;;;;;;;4.90;99.90;;;;;;4990161;28;19948;-85
2023/04/25 05:08:52;;;;;;;;;;;5.50;99.90;;;;;;4989953;28;20080;-86
2023/04/25 05:11:18;;;;;;;;;;;5.80;99.90;;;;;;4993726;28;20383;-85
2023/04/25 05:13:45;;;;;;;;;;;6.20;99.90;;;;;;4988744;28;20044;-85
2023/04/25 05:16:11;;;;;;;;;;;5.80;99.90;;;;;;4988971;28;19998;-85
2023/04/25 05:18:37;;;;;;;;;;;5.40;99.90;;;;;;4988650;28;19988;-84
2023/04/25 05:21:03;;;;;;;;;;;6.20;99.90;;;;;;4994865;28;20362;-87
2023/04/25 05:23:30;;;;;;;;;;;5.50;99.90;;;;;;4988958;28;19993;-86
2023/04/25 05:25:55;;;;;;;;;;;5.50;99.90;;;;;;4988482;28;20481;-85
2023/04/25 05:28:21;;;;;;;;;;;6.40;99.90;;;;;;4988940;28;20023;-86
2023/04/25 05:30:49;;;;;;;;;;;5.40;99.90;;;;;;4988538;28;19956;-85
2023/04/25 05:33:15;;;;;;;;;;;5.40;99.90;;;;;;4988611;28;20386;-85
2023/04/25 05:35:41;;;;;;;;;;;6.20;99.90;;;;;;4988629;28;19982;-85
2023/04/25 05:38:07;;;;;;;;;;;6.10;99.90;;;;;;4989959;28;19956;-86
2023/04/25 05:40:32;;;;;;;;;;;5.40;99.90;;;;;;4987953;28;19963;-86
2023/04/25 05:42:58;;;;;;;;;;;6.30;99.90;;;;;;4996817;28;19973;-85
2023/04/25 05:45:24;;;;;;;;;;;5.60;99.90;;;;;;4990482;28;19993;-86
2023/04/25 05:47:49;;;;;;;;;;;5.90;99.90;;;;;;4994166;28;20117;-85
2023/04/25 05:50:15;;;;;;;;;;;5.70;99.90;;;;;;4993251;28;20007;-85
2023/04/25 05:52:41;;;;;;;;;;;5.90;99.90;;;;;;4992060;28;19967;-85
2023/04/25 05:55:07;;;;;;;;;;;6.50;99.90;;;;;;4991962;28;19990;-85
2023/04/25 05:57:32;;;;;;;;;;;5.70;99.90;;;;;;4991892;28;20042;-85
2023/04/25 05:59:58;;;;;;;;;;;5.60;99.90;;;;;;4992945;28;19945;-85
2023/04/25 06:02:23;;;;;;;;;;;5.60;99.90;;;;;;4999567;28;19971;-84
2023/04/25 06:04:50;;;;;;;;;;;5.50;99.90;;;;;;4977973;28;19947;-85
2023/04/25 06:07:15;;;;;;;;;;;5.60;99.90;;;;;;4994816;28;20321;-85
2023/04/25 06:09:41;;;;;;;;;;;4.90;99.90;;;;;;4995851;28;20040;-85
2023/04/25 06:12:07;;;;;;;;;;;5.70;99.90;;;;;;4996478;28;20428;-85
2023/04/25 06:14:35;;;;;;;;;;;6.00;99.90;;;;;;4995703;28;19951;-84
2023/04/25 06:17:06;;;;;;;;;;;5.70;99.90;;;;;;4985676;28;19948;-86
2023/04/25 06:19:35;;;;;;;;;;;5.70;99.90;;;;;;4991602;28;19948;-85
2023/04/25 06:22:01;;;;;;;;;;;5.80;99.90;;;;;;5001894;28;19958;-85
2023/04/25 06:24:27;;;;;;;;;;;6.10;99.90;;;;;;4996374;28;20326;-85
2023/04/25 06:26:52;;;;;;;;;;;5.70;99.90;;;;;;4975096;28;19955;-85
2023/04/25 06:29:18;;;;;;;;;;;6.10;99.90;;;;;;4991738;28;19956;-85
2023/04/25 06:31:44;;;;;;;;;;;6.30;99.90;;;;;;4991252;28;20055;-85
2023/04/25 06:34:10;;;;;;;;;;;6.50;99.90;;;;;;4997167;28;19948;-86
2023/04/25 06:36:36;;;;;;;;;;;6.60;99.90;;;;;;4991612;28;19979;-86
2023/04/25 06:39:01;;;;;;;;;;;6.90;99.90;;;;;;5064454;23;19977;-86
2023/04/25 06:48:19;;;;;;;;;;;7.50;99.90;;;;;;5019597;28;20433;-85
2023/04/25 06:50:44;;;;;;;;;;;7.40;99.90;;;;;;5002216;28;19952;-85
2023/04/25 06:53:11;;;;;;;;;;;7.50;99.90;;;;;;5021972;28;20355;-85
2023/04/25 06:55:39;;;;;;;;;;;7.30;99.90;;;;;;5005592;28;19948;-86
2023/04/25 06:58:37;;;;;;;;;;;7.20;99.90;;;;;;4986638;28;19944;-87
2023/04/25 07:01:03;;;;;;;;;;;7.00;99.90;;;;;;5033800;28;20045;-85
2023/04/25 07:03:29;;;;;;;;;;;7.00;99.90;;;;;;5044584;28;20069;-86
2023/04/25 07:05:54;;;;;;;;;;;7.10;99.90;;;;;;5032132;28;19996;-86
2023/04/25 07:08:21;;;;;;;;;;;7.20;99.90;;;;;;5050802;28;20390;-85
2023/04/25 07:10:47;;;;;;;;;;;7.30;99.90;;;;;;5027152;28;19948;-86
2023/04/25 07:13:12;;;;;;;;;;;7.70;99.90;;;;;;5005868;28;20030;-86
2023/04/25 07:15:38;;;;;;;;;;;6.90;99.90;;;;;;5015545;28;19996;-85
2023/04/25 07:18:13;;;;;;;;;;;7.40;99.90;;;;;;5034398;28;20008;-86
2023/04/25 07:20:38;;;;;;;;;;;7.60;99.90;;;;;;5027611;28;20368;-85
2023/04/25 07:23:06;;;;;;;;;;;8.00;99.90;;;;;;5027579;28;20001;-85
2023/04/25 07:25:39;;;;;;;;;;;8.20;99.90;;;;;;5027541;28;20313;-86
2023/04/25 07:28:05;;;;;;;;;;;8.40;99.90;;;;;;5033904;28;20310;-85
2023/04/25 07:30:31;;;;;;;;;;;8.50;99.90;;;;;;5019689;28;19942;-85
2023/04/25 07:32:56;;;;;;;;;;;8.30;99.90;;;;;;5019127;28;19946;-84
2023/04/25 07:35:22;;;;;;;;;;;8.30;99.90;;;;;;5000985;28;19948;-83
2023/04/25 07:37:48;;;;;;;;;;;8.20;99.90;;;;;;5009771;28;20003;-84
2023/04/25 07:40:16;;;;;;;;;;;8.10;99.90;;;;;;4995245;28;20431;-85
2023/04/25 07:42:42;;;;;;;;;;;8.00;99.90;;;;;;5001476;28;20038;-84
2023/04/25 07:45:09;;;;;;;;;;;7.90;99.90;;;;;;5001125;28;19954;-84
2023/04/25 07:47:34;;;;;;;;;;;8.10;99.90;;;;;;5018250;28;19947;-85
2023/04/25 07:50:00;;;;;;;;;;;8.10;99.90;;;;;;5001135;28;19947;-83
2023/04/25 07:52:26;;;;;;;;;;;8.10;99.90;;;;;;4984905;28;19947;-85
2023/04/25 07:54:51;;;;;;;;;;;8.00;99.90;;;;;;5021932;28;19951;-83
2023/04/25 07:57:19;;;;;;;;;;;8.10;99.90;;;;;;5003174;28;19948;-83
2023/04/25 07:59:45;;;;;;;;;;;8.50;99.90;;;;;;5013061;28;20291;-83
2023/04/25 08:02:10;;;;;;;;;;;8.70;99.90;;;;;;5021827;28;20063;-83
2023/04/25 08:04:36;;;;;;;;;;;8.90;99.90;;;;;;5020140;28;19941;-83
2023/04/25 08:07:02;;;;;;;;;;;9.10;99.90;;;;;;5001080;28;19944;-83
2023/04/25 08:09:29;;;;;;;;;;;9.00;99.90;;;;;;5018267;28;19943;-82
2023/04/25 08:15:44;;;;;;;;;;;8.20;99.90;;;;;;5013544;28;19983;-83
2023/04/25 08:18:10;;;;;;;;;;;7.70;99.90;;;;;;5012694;28;19946;-82
2023/04/25 08:20:35;;;;;;;;;;;7.50;99.90;;;;;;4993242;28;19969;-84
2023/04/25 08:23:01;;;;;;;;;;;7.40;99.90;;;;;;5018624;28;20391;-82
2023/04/25 08:25:27;;;;;;;;;;;7.70;99.90;;;;;;4991599;28;20075;-83
2023/04/25 08:27:52;;;;;;;;;;;7.50;99.90;;;;;;5019153;28;20001;-82
2023/04/25 08:30:18;;;;;;;;;;;7.80;99.90;;;;;;5000553;28;19943;-82
2023/04/25 08:32:44;;;;;;;;;;;7.90;99.90;;;;;;5018649;28;19950;-83
2023/04/25 08:35:10;;;;;;;;;;;7.90;99.90;;;;;;5000869;28;19947;-83
2023/04/25 08:37:36;;;;;;;;;;;8.10;99.90;;;;;;5000160;28;19986;-84
2023/04/25 08:40:06;;;;;;;;;;;8.10;99.90;;;;;;5018412;28;19967;-83
2023/04/25 08:42:34;;;;;;;;;;;8.20;99.90;;;;;;4998877;28;20001;-83
2023/04/25 08:45:00;;;;;;;;;;;8.50;99.90;;;;;;5019085;28;19947;-82
2023/04/25 08:47:27;;;;;;;;;;;9.10;99.90;;;;;;4981898;28;19941;-83
2023/04/25 08:49:53;;;;;;;;;;;8.40;99.90;;;;;;5013145;28;20045;-83
2023/04/25 08:52:23;;;;;;;773.47;333.45;;;8.40;99.90;;;;;;5000317;28;19936;-83
2023/04/25 08:54:49;;;;;;;;;;;8.90;99.90;;;;;;5017982;28;20213;-84
2023/04/25 08:57:15;;;;;;;727.93;387.10;;;9.00;99.90;;;;;;4994570;28;20470;-84
2023/04/25 08:59:45;;;;;;;;;;;9.50;99.90;;;;;;5003651;28;20386;-84
2023/04/25 09:02:14;;;;;;;;;;;9.80;99.90;;;;;;4984539;28;19989;-84
2023/04/25 09:04:40;;;;;;;;;;;10.20;99.90;;;;;;5017762;28;19970;-83
2023/04/25 09:07:06;;;;;;;;;;;10.20;99.90;;;;;;4984428;28;19970;-83
2023/04/25 09:09:31;;;;;;;;;;;10.10;99.90;;;;;;5003080;28;20337;-83
2023/04/25 09:11:57;;;;;;;;;;;10.10;99.90;;;;;;4979602;28;19970;-84
2023/04/25 09:14:25;;;;;;;;;;;10.00;99.90;;;;;;5002644;28;19970;-83
2023/04/25 09:17:01;;;;;;;;;;;10.00;99.90;;;;;;5020925;28;19973;-83
2023/04/25 09:19:31;;;;;;;;;;;9.80;99.90;;;;;;5017403;28;19970;-83
2023/04/25 09:21:58;;;;;;;;;;;10.20;99.90;;;;;;5002287;28;19989;-83
2023/04/25 09:24:31;;;;;;;;;;;10.20;99.90;;;;;;5023956;28;19977;-83
2023/04/25 09:26:56;;;;;;;;;;;10.10;99.90;;;;;;5024589;28;20417;-82
2023/04/25 09:29:28;;;;;;;;;;;9.60;99.90;;;;;;5021586;28;19983;-83
2023/04/25 09:32:10;;;;;;;;;;;9.50;99.90;;;;;;5003321;28;19974;-84
2023/04/25 09:34:42;;;;;;;;;;;9.70;99.90;;;;;;4995635;28;19969;-82
2023/04/25 09:37:09;;;;;;;;;;;9.70;99.90;;;;;;5003187;28;20384;-82
2023/04/25 09:39:34;;;;;;;;;;;9.40;99.90;;;;;;5020375;28;20115;-85
2023/04/25 09:42:00;;;;;;;;;;;9.70;99.90;;;;;;5021124;28;20460;-83
2023/04/25 09:44:26;;;;;;;;;;;10.20;99.90;;;;;;5020740;28;19973;-85
2023/04/25 09:46:53;;;;;;;;;;;10.00;99.90;;;;;;5003095;28;19977;-83
2023/04/25 09:49:22;;;;;;;;;;;10.30;99.90;;;;;;5003246;28;19977;-84
2023/04/25 09:51:56;;;;;;;;;;;10.80;99.90;;;;;;5023871;28;19974;-82
2023/04/25 09:54:26;;;;;;;;;;;10.40;99.90;;;;;;5021922;28;20116;-83
2023/04/25 09:56:52;;;;;;;;;;;10.40;99.90;;;;;;4986882;28;19981;-83
2023/04/25 09:59:24;;;;;;;;;;;11.00;99.90;;;;;;5020276;28;20429;-84
2023/04/25 10:01:50;;;;;;;;;;;10.80;99.90;;;;;;5019730;28;20487;-83
2023/04/25 10:04:21;;;;;;;;;;;10.90;99.90;;;;;;5002416;28;20056;-83
2023/04/25 10:06:49;;;;;;;;;;;11.10;99.90;;;;;;5006212;28;19999;-84
2023/04/25 10:09:14;;;;;;;;;;;10.80;99.90;;;;;;5023449;28;19973;-83
2023/04/25 10:11:40;;;;;;;;;;;10.20;99.90;;;;;;5003147;28;19977;-83
2023/04/25 10:14:06;;;;;;;;;;;9.60;99.90;;;;;;5020475;28;19921;-84
2023/04/25 10:16:32;;;;;;;;;;;8.90;99.90;;;;;;5021395;28;20381;-82
2023/04/25 10:18:57;;;;;;;;;;;8.30;99.90;;;;;;5005773;28;19921;-82
2023/04/25 10:21:24;;;;;;;;;;;8.20;99.90;;;;;;4997363;28;19936;-84
2023/04/25 10:23:50;;;;;;;32.92;31.33;;;7.90;99.90;;;;;;5096038;28;20838;-83
2023/04/25 10:26:17;;;;;;;;;;;8.00;99.90;;;;;;5001987;28;20049;-83
2023/04/25 10:28:57;;;;;;;191.20;122.80;;;8.10;99.90;;;;;;5018687;28;20480;-83
2023/04/25 10:31:23;;;;;;;196.38;124.93;;;9.00;99.90;;;;;;5001610;28;20037;-83
2023/04/25 10:33:49;;;;;;;;;;;8.80;99.90;;;;;;5037522;28;20107;-83
2023/04/25 10:36:18;;;;;;;100.85;89.90;;;9.30;99.90;;;;;;5000608;28;20822;-83
2023/04/25 10:38:45;;;;;;;56.47;52.22;;;10.00;99.90;;;;;;5002479;28;20522;-82
2023/04/25 10:41:12;;;;;;;;;;;10.30;99.90;;;;;;5017581;28;20514;-82
2023/04/25 10:43:41;;;;;;;;;;;10.30;99.90;;;;;;5021107;28;19921;-83
2023/04/25 10:46:17;;;;;;;;;;;10.10;99.90;;;;;;5005316;28;19921;-83
2023/04/25 10:48:47;;;;;;;;;;;9.90;99.90;;;;;;5003622;28;19996;-82
2023/04/25 10:51:23;;;;;;;;;;;9.30;99.90;;;;;;5002373;28;20030;-83
2023/04/25 10:53:54;;;;;;;;;;;8.80;99.90;;;;;;5022207;28;20547;-83
2023/04/25 10:56:21;;;;;;;;;;;8.80;99.90;;;;;;5024883;28;20001;-83
2023/04/25 10:58:47;;;;;;;;;;;8.80;99.90;;;;;;5002364;28;19996;-83
2023/04/25 11:01:19;;;;;;;;;;;9.40;99.90;;;;;;5006001;28;19921;-84
2023/04/25 11:03:45;;;;;;;;;;;9.60;99.90;;;;;;5020794;28;20512;-83
2023/04/25 11:06:22;;;;;;;;;;;9.90;99.90;;;;;;5002268;28;20422;-83
2023/04/25 11:08:49;;;;;;;;;;;10.00;99.90;;;;;;5002462;28;19982;-83
2023/04/25 11:11:16;;;;;;;;;;;10.20;99.90;;;;;;5019378;28;19974;-85
2023/04/25 11:13:42;;;;;;;;;;;10.30;99.90;;;;;;5019111;28;19985;-83
2023/04/25 11:16:07;;;;;;;;;;;10.80;99.90;;;;;;5022864;28;19964;-83
2023/04/25 11:18:34;;;;;;;;;;;10.70;99.90;;;;;;5016288;28;20438;-83
2023/04/25 11:20:59;;;;;;;;;;;10.80;99.90;;;;;;5002121;28;19988;-84
2023/04/25 11:23:26;;;;;;;;;;;10.90;99.90;;;;;;5019306;28;19981;-83
2023/04/25 11:25:52;;;;;;;;;;;11.10;99.90;;;;;;5002340;28;19982;-83
2023/04/25 11:28:24;;;;;;;;;;;11.20;99.90;;;;;;5005233;28;19973;-82
2023/04/25 11:30:50;;;;;;;;;;;11.40;99.90;;;;;;4995931;28;20387;-83
2023/04/25 11:33:16;;;;;;;;;;;11.70;99.90;;;;;;5001375;28;20023;-83
2023/04/25 11:35:42;;;;;;;;;;;11.60;99.90;;;;;;5001643;28;20064;-83
2023/04/25 11:38:08;;;;;;;;;;;11.50;99.90;;;;;;5024485;28;20432;-83
2023/04/25 11:40:35;;;;;;;;;;;11.70;99.90;;;;;;5039198;28;20002;-83
2023/04/25 11:43:01;;;;;;;;;;;11.60;99.90;;;;;;5020149;28;20311;-83
2023/04/25 11:45:27;;;;;;;;;;;11.60;98.50;;;;;;5004415;28;20064;-83
2023/04/25 11:47:52;;;;;;;;;;;11.60;99.60;;;;;;5040918;28;19980;-83
2023/04/25 11:50:18;;;;;;;;;;;11.40;99.90;;;;;;5001703;28;19974;-82
2023/04/25 11:52:48;;;;;;;;;;;11.60;99.90;;;;;;5019056;28;19978;-83
2023/04/25 11:55:17;;;;;;;;;;;11.70;99.90;;;;;;5021723;28;19981;-83
2023/04/25 11:57:43;;;;;;;;;;;11.80;99.90;;;;;;5030638;28;19987;-83
2023/04/25 12:00:13;;;;;;;;;;;11.90;99.10;;;;;;5018152;28;20426;-83
2023/04/25 12:02:55;;;;;;;;;;;12.30;99.90;;;;;;5018764;28;19981;-83
2023/04/25 12:05:23;;;;;;;;;;;12.20;99.90;;;;;;4989397;28;20024;-83
2023/04/25 12:07:48;;;;;;;;;;;11.60;99.90;;;;;;5004482;28;19981;-85
2023/04/25 12:10:15;;;;;;;;;;;11.10;99.90;;;;;;5018504;28;20073;-82
2023/04/25 12:12:44;;;;;;;;;;;11.00;99.90;;;;;;5018720;28;19974;-82
2023/04/25 12:15:19;;;;;;;;;;;10.90;99.90;;;;;;4985822;28;19985;-83
2023/04/25 12:17:45;;;;;;;;;;;11.30;99.90;;;;;;5004083;28;20020;-83
2023/04/25 12:20:17;;;;;;;;;;;11.30;99.90;;;;;;5020002;28;19984;-83
2023/04/25 12:22:45;;;;;;;;;;;11.30;99.90;;;;;;4998999;28;19982;-83
2023/04/25 12:25:12;;;;;;;;;;;11.30;99.90;;;;;;5019537;28;20368;-85
2023/04/25 12:27:39;;;;;;;;;;;11.30;99.90;;;;;;5000603;28;20064;-85
2023/04/25 12:30:06;;;;;;;;;;;11.10;99.90;;;;;;5018311;28;19978;-84
2023/04/25 12:32:32;;;;;;;;;;;10.80;99.90;;;;;;5004022;28;20359;-83
2023/04/25 12:34:58;;;;;;;;;;;10.60;99.90;;;;;;5021353;28;19977;-83
2023/04/25 12:37:23;;;;;;;;;;;10.70;99.90;;;;;;5010235;28;19974;-83
2023/04/25 12:39:49;;;;;;;;;;;10.90;99.90;;;;;;5017676;28;20041;-83
2023/04/25 12:42:15;;;;;;;;;;;11.00;99.90;;;;;;5000950;28;20483;-83
2023/04/25 12:44:40;;;;;;;;;;;11.00;99.90;;;;;;5003754;28;19995;-84
2023/04/25 12:47:06;;;;;;;;;;;11.10;99.90;;;;;;5003548;28;19978;-85
2023/04/25 12:49:32;;;;;;;;;;;11.30;99.90;;;;;;5017808;28;19978;-83
2023/04/25 12:51:57;;;;;;;;;;;11.40;99.90;;;;;;5018128;28;20067;-83
2023/04/25 12:54:24;;;;;;;;;;;12.10;98.00;;;;;;5017447;28;19962;-84
2023/04/25 12:56:50;;;;;;;;;;;12.00;98.80;;;;;;4999329;28;19978;-83
2023/04/25 12:59:16;;;;;;;;;;;11.70;97.90;;;;;;5001189;28;19978;-84
2023/04/25 13:01:42;;;;;;;;;;;12.50;98.00;;;;;;5003772;28;19993;-85
2023/04/25 13:04:08;;;;;;;;;;;11.50;99.20;;;;;;5021279;28;19978;-83
2023/04/25 13:06:33;;;;;;;;;;;11.20;99.70;;;;;;5017510;28;20004;-85
2023/04/25 13:08:59;;;;;;;;;;;10.90;99.90;;;;;;5017754;28;20439;-85
2023/04/25 13:11:25;;;;;;;;;;;11.20;99.90;;;;;;5001211;28;20001;-83
2023/04/25 13:13:50;;;;;;;;;;;11.70;99.70;;;;;;5003275;28;19977;-83
2023/04/25 13:16:16;;;;;;;;;;;11.60;97.90;;;;;;5020601;28;20077;-83
2023/04/25 13:18:41;;;;;;;;;;;11.80;99.00;;;;;;4999984;28;20021;-83
2023/04/25 13:21:09;;;;;;;;;;;11.90;99.80;;;;;;5017428;28;19993;-84
2023/04/25 13:23:35;;;;;;;;;;;12.10;99.90;;;;;;5001820;28;19982;-83
2023/04/25 13:26:03;;;;;;;;;;;12.30;99.90;;;;;;5020652;28;19985;-83
2023/04/25 13:28:29;;;;;;;;;;;12.60;98.50;;;;;;4994937;28;20490;-83
2023/04/25 13:30:55;;;;;;;;;;;12.80;99.10;;;;;;5020985;28;19977;-84
2023/04/25 13:33:20;;;;;;;;;;;12.40;98.20;;;;;;5003185;28;20508;-84
2023/04/25 13:35:53;;;;;;;;;;;12.50;95.60;;;;;;4995595;28;20449;-83
2023/04/25 13:38:19;;;;;;;;;;;12.60;95.10;;;;;;5002996;28;19988;-83
2023/04/25 13:40:45;;;;;;;;;;;12.60;95.30;;;;;;4999537;28;20001;-83
2023/04/25 13:43:11;;;;;;;;;;;12.60;94.50;;;;;;5017276;28;19974;-83
2023/04/25 13:45:36;;;;;;;;;;;12.70;94.90;;;;;;5017329;28;19981;-83
2023/04/25 13:48:02;;;;;;;;;;;12.90;93.90;;;;;;4999609;28;19974;-85
2023/04/25 13:50:28;;;;;;;;;;;12.70;94.60;;;;;;4999567;28;19974;-83
2023/04/25 13:52:53;;;;;;;;;;;12.90;93.60;;;;;;5002752;28;20340;-84
2023/04/25 13:55:19;;;;;;;;;;;12.70;94.00;;;;;;5002792;28;19992;-83
2023/04/25 13:57:45;;;;;;;;;;;12.60;95.80;;;;;;5019771;28;21031;-83
2023/04/25 14:00:11;;;;;;;;;;;12.90;96.90;;;;;;5003109;28;20057;-83
2023/04/25 14:02:37;;;;;;;;;;;12.70;97.10;;;;;;5000507;28;20076;-83
2023/04/25 14:05:03;;;;;;;;;;;12.60;95.80;;;;;;4996340;28;19976;-83
2023/04/25 14:07:29;;;;;;;;;;;12.30;95.80;;;;;;5021373;28;19970;-83
2023/04/25 14:09:57;;;;;;;;;;;12.00;96.90;;;;;;4995300;28;20028;-84
2023/04/25 14:12:23;;;;;;;;;;;11.80;96.40;;;;;;5002418;28;20418;-83
2023/04/25 14:14:48;;;;;;;;;;;11.60;97.00;;;;;;5004592;28;19977;-83
2023/04/25 14:17:14;;;;;;;;;;;11.50;96.20;;;;;;5023320;28;20367;-83
2023/04/25 14:19:43;;;;;;;;;;;11.20;96.30;;;;;;5006838;28;20016;-83
2023/04/25 14:22:08;;;;;;;;;;;11.20;97.00;;;;;;5002299;28;19986;-83
2023/04/25 14:24:34;;;;;;;;;;;11.40;96.20;;;;;;5002171;28;19977;-83
2023/04/25 14:27:00;;;;;;;;;;;11.40;97.40;;;;;;4994465;28;19977;-84
2023/04/25 14:29:26;;;;;;;;;;;11.20;99.00;;;;;;5020104;28;19972;-83
2023/04/25 14:31:53;;;;;;;;;;;11.40;98.80;;;;;;5027818;28;19981;-84